sensor_id;sensor_type;location;lat;lon;timestamp;P1;durP1;ratioP1;P2;durP2;ratioP2
56457;SDS011;42360;42.918;12.366;2022-07-29T00:00:41;7.30;;;3.78;;
56457;SDS011;42360;42.918;12.366;2022-07-29T00:03:12;4.82;;;3.10;;
56457;SDS011;42360;42.918;12.366;2022-07-29T00:05:39;4.35;;;3.20;;
56457;SDS011;42360;42.918;12.366;2022-07-29T00:08:05;3.30;;;2.92;;
56457;SDS011;42360;42.918;12.366;2022-07-29T00:10:31;5.10;;;3.50;;
56457;SDS011;42360;42.918;12.366;2022-07-29T00:12:57;6.97;;;3.83;;
56457;SDS011;42360;42.918;12.366;2022-07-29T00:15:23;4.13;;;2.90;;
56457;SDS011;42360;42.918;12.366;2022-07-29T00:17:49;6.60;;;3.50;;
56457;SDS011;42360;42.918;12.366;2022-07-29T00:20:14;3.83;;;3.38;;
56457;SDS011;42360;42.918;12.366;2022-07-29T00:22:40;3.72;;;3.15;;
56457;SDS011;42360;42.918;12.366;2022-07-29T00:25:06;4.47;;;3.38;;
56457;SDS011;42360;42.918;12.366;2022-07-29T00:27:33;5.63;;;3.33;;
56457;SDS011;42360;42.918;12.366;2022-07-29T00:29:59;5.55;;;3.42;;
56457;SDS011;42360;42.918;12.366;2022-07-29T00:32:25;5.50;;;3.38;;
56457;SDS011;42360;42.918;12.366;2022-07-29T00:34:51;5.00;;;3.83;;
56457;SDS011;42360;42.918;12.366;2022-07-29T00:37:35;6.53;;;3.08;;
56457;SDS011;42360;42.918;12.366;2022-07-29T00:40:01;6.40;;;3.47;;
56457;SDS011;42360;42.918;12.366;2022-07-29T00:42:26;4.00;;;3.30;;
56457;SDS011;42360;42.918;12.366;2022-07-29T00:44:52;5.68;;;3.45;;
56457;SDS011;42360;42.918;12.366;2022-07-29T00:47:18;5.65;;;3.00;;
56457;SDS011;42360;42.918;12.366;2022-07-29T00:49:43;6.20;;;3.70;;
56457;SDS011;42360;42.918;12.366;2022-07-29T00:52:10;3.53;;;3.20;;
56457;SDS011;42360;42.918;12.366;2022-07-29T00:54:36;4.20;;;3.40;;
56457;SDS011;42360;42.918;12.366;2022-07-29T00:57:03;6.65;;;3.15;;
56457;SDS011;42360;42.918;12.366;2022-07-29T00:59:31;4.75;;;3.30;;
56457;SDS011;42360;42.918;12.366;2022-07-29T01:01:57;5.55;;;3.40;;
56457;SDS011;42360;42.918;12.366;2022-07-29T01:04:23;4.95;;;3.13;;
56457;SDS011;42360;42.918;12.366;2022-07-29T01:06:48;6.95;;;2.85;;
56457;SDS011;42360;42.918;12.366;2022-07-29T01:09:15;3.03;;;2.72;;
56457;SDS011;42360;42.918;12.366;2022-07-29T01:11:41;4.05;;;3.10;;
56457;SDS011;42360;42.918;12.366;2022-07-29T01:14:07;7.40;;;3.22;;
56457;SDS011;42360;42.918;12.366;2022-07-29T01:16:37;4.00;;;3.47;;
56457;SDS011;42360;42.918;12.366;2022-07-29T01:21:55;4.05;;;2.80;;
56457;SDS011;42360;42.918;12.366;2022-07-29T01:24:33;8.23;;;3.17;;
56457;SDS011;42360;42.918;12.366;2022-07-29T01:29:52;3.28;;;2.65;;
56457;SDS011;42360;42.918;12.366;2022-07-29T01:32:22;6.63;;;3.20;;
56457;SDS011;42360;42.918;12.366;2022-07-29T01:40:08;3.78;;;3.30;;
56457;SDS011;42360;42.918;12.366;2022-07-29T01:42:43;6.35;;;3.47;;
56457;SDS011;42360;42.918;12.366;2022-07-29T01:45:13;5.82;;;3.20;;
56457;SDS011;42360;42.918;12.366;2022-07-29T01:47:54;5.20;;;3.90;;
56457;SDS011;42360;42.918;12.366;2022-07-29T01:50:26;6.72;;;3.72;;
56457;SDS011;42360;42.918;12.366;2022-07-29T01:52:56;6.45;;;2.88;;
56457;SDS011;42360;42.918;12.366;2022-07-29T01:55:25;5.28;;;3.20;;
56457;SDS011;42360;42.918;12.366;2022-07-29T01:57:53;6.03;;;3.30;;
56457;SDS011;42360;42.918;12.366;2022-07-29T02:00:19;5.95;;;3.50;;
56457;SDS011;42360;42.918;12.366;2022-07-29T02:02:45;4.13;;;3.33;;
56457;SDS011;42360;42.918;12.366;2022-07-29T02:05:12;3.88;;;2.88;;
56457;SDS011;42360;42.918;12.366;2022-07-29T02:07:40;4.70;;;2.83;;
56457;SDS011;42360;42.918;12.366;2022-07-29T02:10:06;8.38;;;4.28;;
56457;SDS011;42360;42.918;12.366;2022-07-29T02:12:33;5.30;;;3.00;;
56457;SDS011;42360;42.918;12.366;2022-07-29T02:15:01;4.53;;;3.40;;
56457;SDS011;42360;42.918;12.366;2022-07-29T02:17:33;3.67;;;3.20;;
56457;SDS011;42360;42.918;12.366;2022-07-29T02:20:01;4.35;;;3.22;;
56457;SDS011;42360;42.918;12.366;2022-07-29T02:22:29;6.15;;;3.15;;
56457;SDS011;42360;42.918;12.366;2022-07-29T02:24:57;3.78;;;3.10;;
56457;SDS011;42360;42.918;12.366;2022-07-29T02:27:23;3.53;;;2.83;;
56457;SDS011;42360;42.918;12.366;2022-07-29T02:29:50;4.75;;;3.50;;
56457;SDS011;42360;42.918;12.366;2022-07-29T02:32:16;5.55;;;2.92;;
56457;SDS011;42360;42.918;12.366;2022-07-29T02:34:42;2.80;;;2.60;;
56457;SDS011;42360;42.918;12.366;2022-07-29T02:37:09;4.13;;;2.75;;
56457;SDS011;42360;42.918;12.366;2022-07-29T02:39:35;3.65;;;2.92;;
56457;SDS011;42360;42.918;12.366;2022-07-29T02:42:03;4.63;;;3.10;;
56457;SDS011;42360;42.918;12.366;2022-07-29T02:44:31;6.93;;;3.10;;
56457;SDS011;42360;42.918;12.366;2022-07-29T02:53:33;5.50;;;2.90;;
56457;SDS011;42360;42.918;12.366;2022-07-29T02:55:56;5.85;;;3.20;;
56457;SDS011;42360;42.918;12.366;2022-07-29T02:58:41;4.05;;;2.70;;
56457;SDS011;42360;42.918;12.366;2022-07-29T03:01:10;3.00;;;2.70;;
56457;SDS011;42360;42.918;12.366;2022-07-29T03:03:38;3.70;;;3.05;;
56457;SDS011;42360;42.918;12.366;2022-07-29T03:06:04;5.43;;;3.20;;
56457;SDS011;42360;42.918;12.366;2022-07-29T03:08:31;4.05;;;3.00;;
56457;SDS011;42360;42.918;12.366;2022-07-29T03:10:57;5.47;;;2.88;;
56457;SDS011;42360;42.918;12.366;2022-07-29T03:13:23;6.10;;;3.30;;
56457;SDS011;42360;42.918;12.366;2022-07-29T03:15:49;7.32;;;3.28;;
56457;SDS011;42360;42.918;12.366;2022-07-29T03:18:15;4.40;;;3.15;;
56457;SDS011;42360;42.918;12.366;2022-07-29T03:20:40;4.80;;;3.50;;
56457;SDS011;42360;42.918;12.366;2022-07-29T03:23:06;7.55;;;3.35;;
56457;SDS011;42360;42.918;12.366;2022-07-29T03:25:33;6.32;;;3.65;;
56457;SDS011;42360;42.918;12.366;2022-07-29T03:27:59;4.95;;;3.90;;
56457;SDS011;42360;42.918;12.366;2022-07-29T03:30:25;4.90;;;3.13;;
56457;SDS011;42360;42.918;12.366;2022-07-29T03:32:51;5.38;;;3.25;;
56457;SDS011;42360;42.918;12.366;2022-07-29T03:35:17;7.90;;;3.42;;
56457;SDS011;42360;42.918;12.366;2022-07-29T03:37:44;4.25;;;3.63;;
56457;SDS011;42360;42.918;12.366;2022-07-29T03:40:11;5.72;;;3.30;;
56457;SDS011;42360;42.918;12.366;2022-07-29T03:42:42;11.13;;;3.97;;
56457;SDS011;42360;42.918;12.366;2022-07-29T03:45:10;5.13;;;4.63;;
56457;SDS011;42360;42.918;12.366;2022-07-29T03:47:39;5.20;;;3.67;;
56457;SDS011;42360;42.918;12.366;2022-07-29T03:50:08;6.07;;;3.30;;
56457;SDS011;42360;42.918;12.366;2022-07-29T03:52:36;4.90;;;4.15;;
56457;SDS011;42360;42.918;12.366;2022-07-29T03:55:03;5.70;;;4.60;;
56457;SDS011;42360;42.918;12.366;2022-07-29T03:57:29;5.70;;;4.22;;
56457;SDS011;42360;42.918;12.366;2022-07-29T03:59:56;7.43;;;5.45;;
56457;SDS011;42360;42.918;12.366;2022-07-29T04:02:21;6.95;;;5.00;;
56457;SDS011;42360;42.918;12.366;2022-07-29T04:04:47;6.28;;;5.18;;
56457;SDS011;42360;42.918;12.366;2022-07-29T04:07:13;7.28;;;5.22;;
56457;SDS011;42360;42.918;12.366;2022-07-29T04:09:40;9.13;;;4.75;;
56457;SDS011;42360;42.918;12.366;2022-07-29T04:12:05;7.70;;;4.80;;
56457;SDS011;42360;42.918;12.366;2022-07-29T04:14:31;10.38;;;5.15;;
56457;SDS011;42360;42.918;12.366;2022-07-29T04:16:58;8.10;;;4.72;;
56457;SDS011;42360;42.918;12.366;2022-07-29T04:19:24;5.28;;;4.72;;
56457;SDS011;42360;42.918;12.366;2022-07-29T04:21:49;6.60;;;4.70;;
56457;SDS011;42360;42.918;12.366;2022-07-29T04:24:15;11.93;;;5.38;;
56457;SDS011;42360;42.918;12.366;2022-07-29T04:26:41;7.40;;;5.90;;
56457;SDS011;42360;42.918;12.366;2022-07-29T04:29:07;5.32;;;4.60;;
56457;SDS011;42360;42.918;12.366;2022-07-29T04:31:33;8.38;;;5.35;;
56457;SDS011;42360;42.918;12.366;2022-07-29T04:33:59;4.57;;;4.10;;
56457;SDS011;42360;42.918;12.366;2022-07-29T04:36:24;5.57;;;3.75;;
56457;SDS011;42360;42.918;12.366;2022-07-29T04:38:50;7.30;;;4.45;;
56457;SDS011;42360;42.918;12.366;2022-07-29T04:41:15;5.43;;;4.85;;
56457;SDS011;42360;42.918;12.366;2022-07-29T04:43:41;5.53;;;3.55;;
56457;SDS011;42360;42.918;12.366;2022-07-29T04:46:06;4.32;;;3.92;;
56457;SDS011;42360;42.918;12.366;2022-07-29T04:48:32;6.15;;;3.35;;
56457;SDS011;42360;42.918;12.366;2022-07-29T04:50:58;6.20;;;3.92;;
56457;SDS011;42360;42.918;12.366;2022-07-29T04:53:24;4.80;;;3.70;;
56457;SDS011;42360;42.918;12.366;2022-07-29T04:55:50;6.40;;;3.75;;
56457;SDS011;42360;42.918;12.366;2022-07-29T04:58:16;5.32;;;3.85;;
56457;SDS011;42360;42.918;12.366;2022-07-29T05:00:42;5.68;;;3.33;;
56457;SDS011;42360;42.918;12.366;2022-07-29T05:03:07;4.57;;;3.22;;
56457;SDS011;42360;42.918;12.366;2022-07-29T05:05:33;7.57;;;3.55;;
56457;SDS011;42360;42.918;12.366;2022-07-29T05:07:58;5.45;;;4.03;;
56457;SDS011;42360;42.918;12.366;2022-07-29T05:10:24;4.20;;;3.45;;
56457;SDS011;42360;42.918;12.366;2022-07-29T05:12:50;7.63;;;3.83;;
56457;SDS011;42360;42.918;12.366;2022-07-29T05:15:16;5.80;;;3.40;;
56457;SDS011;42360;42.918;12.366;2022-07-29T05:17:42;6.22;;;3.80;;
56457;SDS011;42360;42.918;12.366;2022-07-29T05:20:08;8.00;;;4.38;;
56457;SDS011;42360;42.918;12.366;2022-07-29T05:22:35;7.72;;;3.55;;
56457;SDS011;42360;42.918;12.366;2022-07-29T05:25:00;5.70;;;3.83;;
56457;SDS011;42360;42.918;12.366;2022-07-29T05:27:26;7.30;;;4.07;;
56457;SDS011;42360;42.918;12.366;2022-07-29T05:29:51;5.05;;;3.95;;
56457;SDS011;42360;42.918;12.366;2022-07-29T05:32:17;8.43;;;4.28;;
56457;SDS011;42360;42.918;12.366;2022-07-29T05:34:43;6.05;;;4.40;;
56457;SDS011;42360;42.918;12.366;2022-07-29T05:37:08;9.60;;;4.47;;
56457;SDS011;42360;42.918;12.366;2022-07-29T05:39:34;10.73;;;4.22;;
56457;SDS011;42360;42.918;12.366;2022-07-29T05:42:00;8.25;;;4.55;;
56457;SDS011;42360;42.918;12.366;2022-07-29T05:44:25;9.90;;;4.93;;
56457;SDS011;42360;42.918;12.366;2022-07-29T05:46:51;11.00;;;5.35;;
56457;SDS011;42360;42.918;12.366;2022-07-29T05:49:16;6.28;;;5.00;;
56457;SDS011;42360;42.918;12.366;2022-07-29T05:51:42;6.85;;;5.30;;
56457;SDS011;42360;42.918;12.366;2022-07-29T05:54:08;10.50;;;4.60;;
56457;SDS011;42360;42.918;12.366;2022-07-29T05:56:35;11.00;;;4.93;;
56457;SDS011;42360;42.918;12.366;2022-07-29T05:59:01;9.93;;;4.80;;
56457;SDS011;42360;42.918;12.366;2022-07-29T06:01:26;6.75;;;4.70;;
56457;SDS011;42360;42.918;12.366;2022-07-29T06:03:52;9.90;;;5.55;;
56457;SDS011;42360;42.918;12.366;2022-07-29T06:06:18;8.73;;;4.75;;
56457;SDS011;42360;42.918;12.366;2022-07-29T06:08:43;9.00;;;4.68;;
56457;SDS011;42360;42.918;12.366;2022-07-29T06:11:09;8.32;;;4.70;;
56457;SDS011;42360;42.918;12.366;2022-07-29T06:13:34;4.93;;;3.50;;
56457;SDS011;42360;42.918;12.366;2022-07-29T06:16:00;8.57;;;4.00;;
56457;SDS011;42360;42.918;12.366;2022-07-29T06:18:26;6.53;;;4.25;;
56457;SDS011;42360;42.918;12.366;2022-07-29T06:20:52;5.75;;;4.22;;
56457;SDS011;42360;42.918;12.366;2022-07-29T06:23:18;6.45;;;4.43;;
56457;SDS011;42360;42.918;12.366;2022-07-29T06:25:44;6.38;;;4.20;;
56457;SDS011;42360;42.918;12.366;2022-07-29T06:28:10;6.68;;;4.63;;
56457;SDS011;42360;42.918;12.366;2022-07-29T06:30:35;9.45;;;4.63;;
56457;SDS011;42360;42.918;12.366;2022-07-29T06:33:01;7.53;;;4.78;;
56457;SDS011;42360;42.918;12.366;2022-07-29T06:35:28;13.18;;;5.55;;
56457;SDS011;42360;42.918;12.366;2022-07-29T06:37:53;8.77;;;4.82;;
56457;SDS011;42360;42.918;12.366;2022-07-29T06:40:19;7.47;;;4.50;;
56457;SDS011;42360;42.918;12.366;2022-07-29T06:43:03;6.97;;;4.55;;
56457;SDS011;42360;42.918;12.366;2022-07-29T06:45:29;5.97;;;4.20;;
56457;SDS011;42360;42.918;12.366;2022-07-29T06:47:54;8.70;;;5.15;;
56457;SDS011;42360;42.918;12.366;2022-07-29T06:50:20;6.32;;;4.65;;
56457;SDS011;42360;42.918;12.366;2022-07-29T06:52:47;5.45;;;4.45;;
56457;SDS011;42360;42.918;12.366;2022-07-29T06:55:12;6.93;;;5.03;;
56457;SDS011;42360;42.918;12.366;2022-07-29T06:57:39;11.68;;;6.00;;
56457;SDS011;42360;42.918;12.366;2022-07-29T07:00:04;5.22;;;4.72;;
56457;SDS011;42360;42.918;12.366;2022-07-29T07:02:31;6.75;;;4.78;;
56457;SDS011;42360;42.918;12.366;2022-07-29T07:04:57;6.57;;;4.97;;
56457;SDS011;42360;42.918;12.366;2022-07-29T07:07:23;7.18;;;4.57;;
56457;SDS011;42360;42.918;12.366;2022-07-29T07:09:49;5.78;;;4.55;;
56457;SDS011;42360;42.918;12.366;2022-07-29T07:12:15;8.95;;;4.53;;
56457;SDS011;42360;42.918;12.366;2022-07-29T07:14:40;7.30;;;5.13;;
56457;SDS011;42360;42.918;12.366;2022-07-29T07:17:06;6.47;;;4.40;;
56457;SDS011;42360;42.918;12.366;2022-07-29T07:19:32;6.03;;;4.45;;
56457;SDS011;42360;42.918;12.366;2022-07-29T07:21:58;4.88;;;4.38;;
56457;SDS011;42360;42.918;12.366;2022-07-29T07:24:24;6.38;;;4.43;;
56457;SDS011;42360;42.918;12.366;2022-07-29T07:26:49;4.07;;;3.67;;
56457;SDS011;42360;42.918;12.366;2022-07-29T07:29:15;8.10;;;4.43;;
56457;SDS011;42360;42.918;12.366;2022-07-29T07:31:40;7.45;;;4.28;;
56457;SDS011;42360;42.918;12.366;2022-07-29T07:34:06;6.70;;;4.43;;
56457;SDS011;42360;42.918;12.366;2022-07-29T07:36:31;6.68;;;4.35;;
56457;SDS011;42360;42.918;12.366;2022-07-29T07:38:57;6.28;;;4.38;;
56457;SDS011;42360;42.918;12.366;2022-07-29T07:41:23;8.27;;;4.97;;
56457;SDS011;42360;42.918;12.366;2022-07-29T07:43:49;9.32;;;5.20;;
56457;SDS011;42360;42.918;12.366;2022-07-29T07:46:14;9.93;;;4.70;;
56457;SDS011;42360;42.918;12.366;2022-07-29T07:48:40;9.48;;;5.55;;
56457;SDS011;42360;42.918;12.366;2022-07-29T07:51:06;6.30;;;4.60;;
56457;SDS011;42360;42.918;12.366;2022-07-29T07:53:32;7.63;;;4.90;;
56457;SDS011;42360;42.918;12.366;2022-07-29T07:55:58;8.45;;;4.30;;
56457;SDS011;42360;42.918;12.366;2022-07-29T07:58:24;7.65;;;4.13;;
56457;SDS011;42360;42.918;12.366;2022-07-29T08:00:49;8.02;;;4.70;;
56457;SDS011;42360;42.918;12.366;2022-07-29T08:03:15;5.82;;;4.40;;
56457;SDS011;42360;42.918;12.366;2022-07-29T08:05:40;5.97;;;3.95;;
56457;SDS011;42360;42.918;12.366;2022-07-29T08:08:06;5.40;;;4.28;;
56457;SDS011;42360;42.918;12.366;2022-07-29T08:10:32;5.55;;;4.75;;
56457;SDS011;42360;42.918;12.366;2022-07-29T08:13:16;6.88;;;4.18;;
56457;SDS011;42360;42.918;12.366;2022-07-29T08:15:42;6.45;;;3.75;;
56457;SDS011;42360;42.918;12.366;2022-07-29T08:18:10;4.38;;;3.30;;
56457;SDS011;42360;42.918;12.366;2022-07-29T08:20:36;5.05;;;3.70;;
56457;SDS011;42360;42.918;12.366;2022-07-29T08:23:03;7.45;;;3.70;;
56457;SDS011;42360;42.918;12.366;2022-07-29T08:25:31;8.40;;;3.45;;
56457;SDS011;42360;42.918;12.366;2022-07-29T08:27:57;7.15;;;3.70;;
56457;SDS011;42360;42.918;12.366;2022-07-29T08:30:23;6.20;;;3.72;;
56457;SDS011;42360;42.918;12.366;2022-07-29T08:32:49;5.30;;;3.15;;
56457;SDS011;42360;42.918;12.366;2022-07-29T08:35:18;5.97;;;4.18;;
56457;SDS011;42360;42.918;12.366;2022-07-29T08:37:47;5.88;;;3.40;;
56457;SDS011;42360;42.918;12.366;2022-07-29T08:40:12;8.02;;;3.72;;
56457;SDS011;42360;42.918;12.366;2022-07-29T08:42:39;7.57;;;3.00;;
56457;SDS011;42360;42.918;12.366;2022-07-29T08:45:05;5.10;;;3.55;;
56457;SDS011;42360;42.918;12.366;2022-07-29T08:47:31;4.57;;;3.28;;
56457;SDS011;42360;42.918;12.366;2022-07-29T08:49:58;6.47;;;3.30;;
56457;SDS011;42360;42.918;12.366;2022-07-29T08:52:25;6.88;;;3.22;;
56457;SDS011;42360;42.918;12.366;2022-07-29T08:54:52;9.35;;;3.20;;
56457;SDS011;42360;42.918;12.366;2022-07-29T08:57:19;7.60;;;3.30;;
56457;SDS011;42360;42.918;12.366;2022-07-29T08:59:45;7.20;;;3.63;;
56457;SDS011;42360;42.918;12.366;2022-07-29T09:02:22;5.55;;;3.10;;
56457;SDS011;42360;42.918;12.366;2022-07-29T09:04:48;7.18;;;3.20;;
56457;SDS011;42360;42.918;12.366;2022-07-29T09:07:14;5.63;;;3.33;;
56457;SDS011;42360;42.918;12.366;2022-07-29T09:09:41;5.05;;;2.95;;
56457;SDS011;42360;42.918;12.366;2022-07-29T09:12:08;7.38;;;2.80;;
56457;SDS011;42360;42.918;12.366;2022-07-29T09:14:39;3.35;;;2.90;;
56457;SDS011;42360;42.918;12.366;2022-07-29T09:17:06;5.75;;;3.35;;
56457;SDS011;42360;42.918;12.366;2022-07-29T09:19:36;5.88;;;3.45;;
56457;SDS011;42360;42.918;12.366;2022-07-29T09:22:08;5.97;;;3.20;;
56457;SDS011;42360;42.918;12.366;2022-07-29T09:25:03;4.13;;;2.83;;
56457;SDS011;42360;42.918;12.366;2022-07-29T09:27:32;3.70;;;2.80;;
56457;SDS011;42360;42.918;12.366;2022-07-29T09:30:00;4.85;;;2.70;;
56457;SDS011;42360;42.918;12.366;2022-07-29T09:32:30;6.70;;;3.13;;
56457;SDS011;42360;42.918;12.366;2022-07-29T09:37:45;5.63;;;3.50;;
56457;SDS011;42360;42.918;12.366;2022-07-29T09:40:12;4.90;;;3.05;;
56457;SDS011;42360;42.918;12.366;2022-07-29T09:42:39;5.18;;;3.42;;
56457;SDS011;42360;42.918;12.366;2022-07-29T09:45:05;6.35;;;3.03;;
56457;SDS011;42360;42.918;12.366;2022-07-29T09:47:43;3.95;;;3.10;;
56457;SDS011;42360;42.918;12.366;2022-07-29T09:50:14;5.57;;;3.30;;
56457;SDS011;42360;42.918;12.366;2022-07-29T09:52:50;4.05;;;2.70;;
56457;SDS011;42360;42.918;12.366;2022-07-29T09:55:16;4.45;;;3.30;;
56457;SDS011;42360;42.918;12.366;2022-07-29T09:57:43;5.32;;;3.25;;
56457;SDS011;42360;42.918;12.366;2022-07-29T10:00:14;3.95;;;2.97;;
56457;SDS011;42360;42.918;12.366;2022-07-29T10:02:43;7.00;;;3.03;;
56457;SDS011;42360;42.918;12.366;2022-07-29T10:05:22;6.07;;;3.75;;
56457;SDS011;42360;42.918;12.366;2022-07-29T10:07:53;6.97;;;3.30;;
56457;SDS011;42360;42.918;12.366;2022-07-29T10:10:33;5.07;;;3.20;;
56457;SDS011;42360;42.918;12.366;2022-07-29T10:13:00;5.15;;;3.33;;
56457;SDS011;42360;42.918;12.366;2022-07-29T10:15:28;5.00;;;3.35;;
56457;SDS011;42360;42.918;12.366;2022-07-29T10:17:55;6.07;;;3.40;;
56457;SDS011;42360;42.918;12.366;2022-07-29T10:20:22;6.13;;;3.92;;
56457;SDS011;42360;42.918;12.366;2022-07-29T10:22:48;9.40;;;3.42;;
56457;SDS011;42360;42.918;12.366;2022-07-29T10:25:17;4.32;;;3.30;;
56457;SDS011;42360;42.918;12.366;2022-07-29T10:27:43;6.57;;;3.45;;
56457;SDS011;42360;42.918;12.366;2022-07-29T10:30:10;6.82;;;3.13;;
56457;SDS011;42360;42.918;12.366;2022-07-29T10:32:43;5.75;;;3.22;;
56457;SDS011;42360;42.918;12.366;2022-07-29T10:43:55;6.05;;;3.17;;
56457;SDS011;42360;42.918;12.366;2022-07-29T10:46:23;6.10;;;4.43;;
56457;SDS011;42360;42.918;12.366;2022-07-29T10:54:18;3.67;;;3.22;;
56457;SDS011;42360;42.918;12.366;2022-07-29T10:56:45;6.57;;;3.20;;
56457;SDS011;42360;42.918;12.366;2022-07-29T11:01:45;5.90;;;2.88;;
56457;SDS011;42360;42.918;12.366;2022-07-29T11:04:11;5.85;;;3.30;;
56457;SDS011;42360;42.918;12.366;2022-07-29T11:09:28;4.00;;;3.20;;
56457;SDS011;42360;42.918;12.366;2022-07-29T11:11:55;4.00;;;3.38;;
56457;SDS011;42360;42.918;12.366;2022-07-29T11:17:25;3.83;;;2.90;;
56457;SDS011;42360;42.918;12.366;2022-07-29T11:19:51;4.35;;;2.97;;
56457;SDS011;42360;42.918;12.366;2022-07-29T11:25:12;5.43;;;3.25;;
56457;SDS011;42360;42.918;12.366;2022-07-29T11:27:42;4.32;;;3.08;;
56457;SDS011;42360;42.918;12.366;2022-07-29T11:30:09;6.72;;;3.50;;
56457;SDS011;42360;42.918;12.366;2022-07-29T11:32:41;4.93;;;3.30;;
56457;SDS011;42360;42.918;12.366;2022-07-29T11:37:45;2.70;;;2.50;;
56457;SDS011;42360;42.918;12.366;2022-07-29T11:40:12;4.00;;;2.83;;
56457;SDS011;42360;42.918;12.366;2022-07-29T11:42:39;4.55;;;2.40;;
56457;SDS011;42360;42.918;12.366;2022-07-29T11:45:21;4.30;;;2.63;;
56457;SDS011;42360;42.918;12.366;2022-07-29T11:47:50;5.07;;;3.00;;
56457;SDS011;42360;42.918;12.366;2022-07-29T11:50:28;5.30;;;3.00;;
56457;SDS011;42360;42.918;12.366;2022-07-29T11:52:56;4.03;;;3.22;;
56457;SDS011;42360;42.918;12.366;2022-07-29T11:55:22;6.22;;;3.38;;
56457;SDS011;42360;42.918;12.366;2022-07-29T11:57:53;5.28;;;3.45;;
56457;SDS011;42360;42.918;12.366;2022-07-29T12:00:23;5.63;;;2.88;;
56457;SDS011;42360;42.918;12.366;2022-07-29T12:02:51;7.00;;;3.25;;
56457;SDS011;42360;42.918;12.366;2022-07-29T12:05:17;4.00;;;2.95;;
56457;SDS011;42360;42.918;12.366;2022-07-29T12:07:43;3.72;;;2.78;;
56457;SDS011;42360;42.918;12.366;2022-07-29T12:10:08;4.07;;;2.63;;
56457;SDS011;42360;42.918;12.366;2022-07-29T12:12:34;3.50;;;2.97;;
56457;SDS011;42360;42.918;12.366;2022-07-29T12:17:56;7.82;;;3.00;;
56457;SDS011;42360;42.918;12.366;2022-07-29T12:20:31;4.60;;;3.00;;
56457;SDS011;42360;42.918;12.366;2022-07-29T12:22:58;3.50;;;3.20;;
56457;SDS011;42360;42.918;12.366;2022-07-29T12:25:37;4.78;;;2.92;;
56457;SDS011;42360;42.918;12.366;2022-07-29T12:28:13;3.95;;;2.83;;
56457;SDS011;42360;42.918;12.366;2022-07-29T12:30:44;3.03;;;2.83;;
56457;SDS011;42360;42.918;12.366;2022-07-29T12:33:23;4.15;;;2.72;;
56457;SDS011;42360;42.918;12.366;2022-07-29T12:35:57;3.70;;;2.67;;
56457;SDS011;42360;42.918;12.366;2022-07-29T12:38:23;5.40;;;2.78;;
56457;SDS011;42360;42.918;12.366;2022-07-29T12:40:49;4.57;;;3.10;;
56457;SDS011;42360;42.918;12.366;2022-07-29T12:43:18;3.65;;;2.58;;
56457;SDS011;42360;42.918;12.366;2022-07-29T12:45:49;4.57;;;2.90;;
56457;SDS011;42360;42.918;12.366;2022-07-29T12:48:16;3.80;;;2.63;;
56457;SDS011;42360;42.918;12.366;2022-07-29T12:50:52;5.07;;;2.80;;
56457;SDS011;42360;42.918;12.366;2022-07-29T12:53:19;3.38;;;2.78;;
56457;SDS011;42360;42.918;12.366;2022-07-29T12:55:45;4.78;;;2.95;;
56457;SDS011;42360;42.918;12.366;2022-07-29T13:01:08;2.97;;;2.50;;
56457;SDS011;42360;42.918;12.366;2022-07-29T13:03:43;5.30;;;3.00;;
56457;SDS011;42360;42.918;12.366;2022-07-29T13:09:02;3.20;;;2.65;;
56457;SDS011;42360;42.918;12.366;2022-07-29T13:11:30;4.63;;;2.75;;
56457;SDS011;42360;42.918;12.366;2022-07-29T13:14:00;4.57;;;2.92;;
56457;SDS011;42360;42.918;12.366;2022-07-29T13:16:26;4.35;;;2.90;;
56457;SDS011;42360;42.918;12.366;2022-07-29T13:19:05;3.92;;;2.53;;
56457;SDS011;42360;42.918;12.366;2022-07-29T13:21:37;4.25;;;3.33;;
56457;SDS011;42360;42.918;12.366;2022-07-29T13:24:07;3.28;;;2.75;;
56457;SDS011;42360;42.918;12.366;2022-07-29T13:26:33;5.70;;;3.00;;
56457;SDS011;42360;42.918;12.366;2022-07-29T13:28:59;4.47;;;3.17;;
56457;SDS011;42360;42.918;12.366;2022-07-29T13:31:24;3.42;;;2.67;;
56457;SDS011;42360;42.918;12.366;2022-07-29T13:33:50;5.97;;;3.08;;
56457;SDS011;42360;42.918;12.366;2022-07-29T13:36:16;4.53;;;2.47;;
56457;SDS011;42360;42.918;12.366;2022-07-29T13:38:41;2.50;;;2.30;;
56457;SDS011;42360;42.918;12.366;2022-07-29T13:41:07;3.88;;;2.45;;
56457;SDS011;42360;42.918;12.366;2022-07-29T13:43:33;2.50;;;2.30;;
56457;SDS011;42360;42.918;12.366;2022-07-29T13:45:58;3.58;;;2.30;;
56457;SDS011;42360;42.918;12.366;2022-07-29T13:48:24;5.68;;;2.90;;
56457;SDS011;42360;42.918;12.366;2022-07-29T13:50:49;4.45;;;2.88;;
56457;SDS011;42360;42.918;12.366;2022-07-29T13:53:15;4.68;;;2.88;;
56457;SDS011;42360;42.918;12.366;2022-07-29T13:55:41;3.33;;;2.20;;
56457;SDS011;42360;42.918;12.366;2022-07-29T13:58:07;4.57;;;2.72;;
56457;SDS011;42360;42.918;12.366;2022-07-29T14:00:32;4.47;;;2.15;;
56457;SDS011;42360;42.918;12.366;2022-07-29T14:02:58;2.80;;;2.22;;
56457;SDS011;42360;42.918;12.366;2022-07-29T14:05:23;2.20;;;2.00;;
56457;SDS011;42360;42.918;12.366;2022-07-29T14:07:49;3.72;;;2.00;;
56457;SDS011;42360;42.918;12.366;2022-07-29T14:10:14;2.20;;;1.92;;
56457;SDS011;42360;42.918;12.366;2022-07-29T14:12:40;2.20;;;2.10;;
56457;SDS011;42360;42.918;12.366;2022-07-29T14:15:07;3.30;;;2.28;;
56457;SDS011;42360;42.918;12.366;2022-07-29T14:17:33;3.08;;;2.20;;
56457;SDS011;42360;42.918;12.366;2022-07-29T14:19:59;2.63;;;2.00;;
56457;SDS011;42360;42.918;12.366;2022-07-29T14:22:25;3.10;;;2.30;;
56457;SDS011;42360;42.918;12.366;2022-07-29T14:24:51;6.45;;;2.35;;
56457;SDS011;42360;42.918;12.366;2022-07-29T14:27:17;5.35;;;2.20;;
56457;SDS011;42360;42.918;12.366;2022-07-29T14:29:43;4.30;;;2.70;;
56457;SDS011;42360;42.918;12.366;2022-07-29T14:32:08;6.18;;;2.65;;
56457;SDS011;42360;42.918;12.366;2022-07-29T14:34:39;4.00;;;2.50;;
56457;SDS011;42360;42.918;12.366;2022-07-29T14:37:05;2.13;;;1.92;;
56457;SDS011;42360;42.918;12.366;2022-07-29T14:39:31;4.68;;;2.40;;
56457;SDS011;42360;42.918;12.366;2022-07-29T14:41:57;6.47;;;2.42;;
56457;SDS011;42360;42.918;12.366;2022-07-29T14:44:23;4.65;;;2.38;;
56457;SDS011;42360;42.918;12.366;2022-07-29T14:46:49;3.72;;;2.53;;
56457;SDS011;42360;42.918;12.366;2022-07-29T14:49:14;3.90;;;3.60;;
56457;SDS011;42360;42.918;12.366;2022-07-29T14:51:40;2.65;;;2.45;;
56457;SDS011;42360;42.918;12.366;2022-07-29T14:54:06;4.13;;;1.95;;
56457;SDS011;42360;42.918;12.366;2022-07-29T14:56:32;3.55;;;2.38;;
56457;SDS011;42360;42.918;12.366;2022-07-29T14:58:57;3.55;;;2.17;;
56457;SDS011;42360;42.918;12.366;2022-07-29T15:01:23;2.97;;;2.35;;
56457;SDS011;42360;42.918;12.366;2022-07-29T15:03:49;2.33;;;2.13;;
56457;SDS011;42360;42.918;12.366;2022-07-29T15:06:15;4.60;;;2.30;;
56457;SDS011;42360;42.918;12.366;2022-07-29T15:08:41;6.10;;;2.40;;
56457;SDS011;42360;42.918;12.366;2022-07-29T15:11:06;4.90;;;2.17;;
56457;SDS011;42360;42.918;12.366;2022-07-29T15:13:33;4.97;;;2.40;;
56457;SDS011;42360;42.918;12.366;2022-07-29T15:15:58;1.52;;;1.30;;
56457;SDS011;42360;42.918;12.366;2022-07-29T15:18:24;3.22;;;2.20;;
56457;SDS011;42360;42.918;12.366;2022-07-29T15:20:50;4.78;;;2.10;;
56457;SDS011;42360;42.918;12.366;2022-07-29T15:23:15;2.63;;;2.13;;
56457;SDS011;42360;42.918;12.366;2022-07-29T15:25:41;4.07;;;2.17;;
56457;SDS011;42360;42.918;12.366;2022-07-29T15:28:06;3.85;;;2.20;;
56457;SDS011;42360;42.918;12.366;2022-07-29T15:30:33;3.60;;;2.13;;